sensor_id;sensor_type;location;lat;lon;timestamp;pressure;altitude;pressure_sealevel;temperature;humidity
65756;BME280;52489;47.502;18.940;2023-01-08T00:00:46;98365.28;;;4.94;100.00
65756;BME280;52489;47.502;18.940;2023-01-08T00:01:50;98375.09;;;4.87;100.00
65756;BME280;52489;47.502;18.940;2023-01-08T00:02:53;98377.91;;;4.80;100.00
65756;BME280;52489;47.502;18.940;2023-01-08T00:03:56;98369.84;;;4.76;100.00
65756;BME280;52489;47.502;18.940;2023-01-08T00:04:59;98367.53;;;4.80;100.00
65756;BME280;52489;47.502;18.940;2023-01-08T00:06:03;98376.87;;;4.81;100.00
65756;BME280;52489;47.502;18.940;2023-01-08T00:07:07;98370.09;;;4.75;100.00
65756;BME280;52489;47.502;18.940;2023-01-08T00:08:10;98368.53;;;4.74;100.00
65756;BME280;52489;47.502;18.940;2023-01-08T00:09:13;98370.16;;;4.85;100.00
65756;BME280;52489;47.502;18.940;2023-01-08T00:10:16;98369.44;;;4.95;100.00
65756;BME280;52489;47.502;18.940;2023-01-08T00:11:19;98367.09;;;4.93;100.00
65756;BME280;52489;47.502;18.940;2023-01-08T00:12:22;98372.81;;;4.95;100.00
65756;BME280;52489;47.502;18.940;2023-01-08T00:13:26;98370.19;;;4.90;100.00
65756;BME280;52489;47.502;18.940;2023-01-08T00:14:29;98373.03;;;4.89;100.00
65756;BME280;52489;47.502;18.940;2023-01-08T00:15:33;98371.00;;;4.96;100.00
65756;BME280;52489;47.502;18.940;2023-01-08T00:16:36;98372.78;;;4.85;100.00
65756;BME280;52489;47.502;18.940;2023-01-08T00:17:40;98377.47;;;4.88;100.00
65756;BME280;52489;47.502;18.940;2023-01-08T00:18:44;98375.84;;;4.82;100.00
65756;BME280;52489;47.502;18.940;2023-01-08T00:19:47;98373.72;;;4.74;100.00
65756;BME280;52489;47.502;18.940;2023-01-08T00:20:50;98378.91;;;4.74;100.00
65756;BME280;52489;47.502;18.940;2023-01-08T00:21:54;98372.69;;;4.75;100.00
65756;BME280;52489;47.502;18.940;2023-01-08T00:22:57;98370.41;;;4.84;100.00
65756;BME280;52489;47.502;18.940;2023-01-08T00:24:00;98364.47;;;4.88;100.00
65756;BME280;52489;47.502;18.940;2023-01-08T00:25:03;98359.19;;;4.78;100.00
65756;BME280;52489;47.502;18.940;2023-01-08T00:26:09;98361.06;;;4.83;100.00
65756;BME280;52489;47.502;18.940;2023-01-08T00:27:13;98350.97;;;4.86;100.00
65756;BME280;52489;47.502;18.940;2023-01-08T00:28:16;98346.81;;;4.90;100.00
65756;BME280;52489;47.502;18.940;2023-01-08T00:29:19;98327.59;;;4.86;100.00
65756;BME280;52489;47.502;18.940;2023-01-08T00:30:23;98338.44;;;4.78;100.00
65756;BME280;52489;47.502;18.940;2023-01-08T00:31:26;98330.72;;;4.88;100.00
65756;BME280;52489;47.502;18.940;2023-01-08T00:32:29;98330.25;;;4.96;100.00
65756;BME280;52489;47.502;18.940;2023-01-08T00:33:32;98321.97;;;4.99;100.00
65756;BME280;52489;47.502;18.940;2023-01-08T00:34:35;98319.91;;;5.01;100.00
65756;BME280;52489;47.502;18.940;2023-01-08T00:35:38;98322.56;;;5.17;100.00
65756;BME280;52489;47.502;18.940;2023-01-08T00:36:42;98321.25;;;5.14;100.00
65756;BME280;52489;47.502;18.940;2023-01-08T00:37:48;98317.84;;;5.09;100.00
65756;BME280;52489;47.502;18.940;2023-01-08T00:38:51;98315.97;;;4.99;100.00
65756;BME280;52489;47.502;18.940;2023-01-08T00:39:54;98319.41;;;5.05;100.00
65756;BME280;52489;47.502;18.940;2023-01-08T00:40:58;98312.16;;;5.07;100.00
65756;BME280;52489;47.502;18.940;2023-01-08T00:42:01;98307.69;;;4.97;100.00
65756;BME280;52489;47.502;18.940;2023-01-08T00:43:04;98310.28;;;4.97;100.00
65756;BME280;52489;47.502;18.940;2023-01-08T00:44:07;98315.75;;;5.00;100.00
65756;BME280;52489;47.502;18.940;2023-01-08T00:45:10;98316.25;;;4.97;100.00
65756;BME280;52489;47.502;18.940;2023-01-08T00:46:13;98324.84;;;5.03;100.00
65756;BME280;52489;47.502;18.940;2023-01-08T00:47:17;98320.41;;;4.98;100.00
65756;BME280;52489;47.502;18.940;2023-01-08T00:48:20;98320.75;;;5.12;100.00
65756;BME280;52489;47.502;18.940;2023-01-08T00:49:26;98327.41;;;4.98;100.00
65756;BME280;52489;47.502;18.940;2023-01-08T00:50:30;98323.97;;;4.87;100.00
65756;BME280;52489;47.502;18.940;2023-01-08T00:51:33;98326.03;;;4.85;100.00
65756;BME280;52489;47.502;18.940;2023-01-08T00:52:36;98317.22;;;4.86;100.00
65756;BME280;52489;47.502;18.940;2023-01-08T00:53:39;98330.47;;;4.90;100.00
65756;BME280;52489;47.502;18.940;2023-01-08T00:54:42;98334.94;;;4.94;100.00
65756;BME280;52489;47.502;18.940;2023-01-08T00:55:46;98340.06;;;4.89;100.00
65756;BME280;52489;47.502;18.940;2023-01-08T00:56:49;98343.12;;;4.81;100.00
65756;BME280;52489;47.502;18.940;2023-01-08T00:57:52;98336.56;;;4.68;100.00
65756;BME280;52489;47.502;18.940;2023-01-08T00:58:55;98341.25;;;4.71;100.00
65756;BME280;52489;47.502;18.940;2023-01-08T00:59:58;98345.66;;;4.71;100.00
65756;BME280;52489;47.502;18.940;2023-01-08T01:01:08;98345.63;;;4.66;100.00
65756;BME280;52489;47.502;18.940;2023-01-08T01:02:12;98350.03;;;4.65;100.00
65756;BME280;52489;47.502;18.940;2023-01-08T01:03:15;98351.84;;;4.65;100.00
65756;BME280;52489;47.502;18.940;2023-01-08T01:04:18;98350.84;;;4.71;100.00
65756;BME280;52489;47.502;18.940;2023-01-08T01:05:22;98354.97;;;4.67;100.00
65756;BME280;52489;47.502;18.940;2023-01-08T01:06:25;98353.13;;;4.62;100.00
65756;BME280;52489;47.502;18.940;2023-01-08T01:07:28;98355.50;;;4.69;100.00
65756;BME280;52489;47.502;18.940;2023-01-08T01:08:33;98355.88;;;4.88;100.00
65756;BME280;52489;47.502;18.940;2023-01-08T01:09:38;98352.09;;;5.06;100.00
65756;BME280;52489;47.502;18.940;2023-01-08T01:10:41;98355.50;;;5.06;100.00
65756;BME280;52489;47.502;18.940;2023-01-08T01:11:44;98355.66;;;4.89;100.00
65756;BME280;52489;47.502;18.940;2023-01-08T01:12:47;98362.06;;;4.82;100.00
65756;BME280;52489;47.502;18.940;2023-01-08T01:13:51;98370.03;;;4.70;100.00
65756;BME280;52489;47.502;18.940;2023-01-08T01:14:55;98365.94;;;4.79;100.00
65756;BME280;52489;47.502;18.940;2023-01-08T01:16:00;98353.50;;;4.81;100.00
65756;BME280;52489;47.502;18.940;2023-01-08T01:17:04;98364.22;;;4.90;100.00
65756;BME280;52489;47.502;18.940;2023-01-08T01:18:07;98361.09;;;4.88;100.00
65756;BME280;52489;47.502;18.940;2023-01-08T01:19:11;98353.47;;;4.76;100.00
65756;BME280;52489;47.502;18.940;2023-01-08T01:20:15;98358.88;;;4.69;100.00
65756;BME280;52489;47.502;18.940;2023-01-08T01:21:25;98354.78;;;4.73;100.00
65756;BME280;52489;47.502;18.940;2023-01-08T01:22:29;98344.22;;;4.90;100.00
65756;BME280;52489;47.502;18.940;2023-01-08T01:23:32;98351.69;;;4.82;100.00
65756;BME280;52489;47.502;18.940;2023-01-08T01:24:35;98348.03;;;4.77;100.00
65756;BME280;52489;47.502;18.940;2023-01-08T01:25:38;98344.94;;;4.81;100.00
65756;BME280;52489;47.502;18.940;2023-01-08T01:26:41;98341.31;;;4.82;100.00
65756;BME280;52489;47.502;18.940;2023-01-08T01:27:44;98331.81;;;4.97;100.00
65756;BME280;52489;47.502;18.940;2023-01-08T01:28:49;98329.19;;;4.92;100.00
65756;BME280;52489;47.502;18.940;2023-01-08T01:29:53;98337.75;;;4.93;100.00
65756;BME280;52489;47.502;18.940;2023-01-08T01:30:56;98326.59;;;4.92;100.00
65756;BME280;52489;47.502;18.940;2023-01-08T01:31:59;98334.09;;;4.89;100.00
65756;BME280;52489;47.502;18.940;2023-01-08T01:33:02;98329.94;;;4.88;100.00
65756;BME280;52489;47.502;18.940;2023-01-08T01:34:06;98317.06;;;5.08;100.00
65756;BME280;52489;47.502;18.940;2023-01-08T01:35:09;98324.81;;;4.98;100.00
65756;BME280;52489;47.502;18.940;2023-01-08T01:36:13;98313.34;;;4.89;100.00
65756;BME280;52489;47.502;18.940;2023-01-08T01:37:16;98325.56;;;4.93;100.00
65756;BME280;52489;47.502;18.940;2023-01-08T01:38:20;98319.63;;;4.98;100.00
65756;BME280;52489;47.502;18.940;2023-01-08T01:39:23;98311.63;;;5.10;100.00
65756;BME280;52489;47.502;18.940;2023-01-08T01:40:26;98316.06;;;5.14;100.00
65756;BME280;52489;47.502;18.940;2023-01-08T01:41:41;98313.19;;;5.11;100.00
65756;BME280;52489;47.502;18.940;2023-01-08T01:42:44;98304.84;;;5.04;100.00
65756;BME280;52489;47.502;18.940;2023-01-08T01:43:48;98312.19;;;5.12;100.00
65756;BME280;52489;47.502;18.940;2023-01-08T01:44:51;98307.47;;;5.09;100.00
65756;BME280;52489;47.502;18.940;2023-01-08T01:45:54;98297.81;;;4.99;100.00
65756;BME280;52489;47.502;18.940;2023-01-08T01:46:58;98299.63;;;4.98;100.00
65756;BME280;52489;47.502;18.940;2023-01-08T01:48:07;98290.28;;;4.97;100.00
65756;BME280;52489;47.502;18.940;2023-01-08T01:49:20;98289.78;;;5.06;100.00
65756;BME280;52489;47.502;18.940;2023-01-08T01:50:45;98283.63;;;5.12;100.00
65756;BME280;52489;47.502;18.940;2023-01-08T01:51:54;98290.59;;;5.06;100.00
65756;BME280;52489;47.502;18.940;2023-01-08T01:53:08;98287.19;;;5.06;100.00
65756;BME280;52489;47.502;18.940;2023-01-08T01:54:13;98288.50;;;5.03;100.00
65756;BME280;52489;47.502;18.940;2023-01-08T01:55:17;98291.06;;;4.98;100.00
65756;BME280;52489;47.502;18.940;2023-01-08T01:56:20;98295.19;;;4.94;100.00
65756;BME280;52489;47.502;18.940;2023-01-08T01:57:23;98286.34;;;4.90;100.00
65756;BME280;52489;47.502;18.940;2023-01-08T01:58:29;98278.87;;;4.98;100.00
65756;BME280;52489;47.502;18.940;2023-01-08T01:59:33;98276.22;;;4.88;100.00
65756;BME280;52489;47.502;18.940;2023-01-08T02:00:37;98284.09;;;5.04;100.00
65756;BME280;52489;47.502;18.940;2023-01-08T02:01:40;98271.34;;;4.97;100.00
65756;BME280;52489;47.502;18.940;2023-01-08T02:02:44;98266.62;;;4.94;100.00
65756;BME280;52489;47.502;18.940;2023-01-08T02:03:47;98274.19;;;4.95;100.00
65756;BME280;52489;47.502;18.940;2023-01-08T02:04:50;98276.59;;;5.12;100.00
65756;BME280;52489;47.502;18.940;2023-01-08T02:06:02;98274.19;;;4.95;100.00
65756;BME280;52489;47.502;18.940;2023-01-08T02:08:57;98270.53;;;4.91;100.00
65756;BME280;52489;47.502;18.940;2023-01-08T02:10:32;98263.56;;;4.97;100.00
65756;BME280;52489;47.502;18.940;2023-01-08T02:11:49;98258.84;;;4.89;100.00
65756;BME280;52489;47.502;18.940;2023-01-08T02:13:23;98263.75;;;4.85;100.00
65756;BME280;52489;47.502;18.940;2023-01-08T02:14:41;98263.75;;;4.85;100.00
65756;BME280;52489;47.502;18.940;2023-01-08T02:16:01;98262.75;;;4.91;100.00
65756;BME280;52489;47.502;18.940;2023-01-08T02:17:08;98264.81;;;4.89;100.00
65756;BME280;52489;47.502;18.940;2023-01-08T02:18:24;98259.12;;;4.97;100.00
65756;BME280;52489;47.502;18.940;2023-01-08T02:19:48;98255.75;;;4.97;100.00
65756;BME280;52489;47.502;18.940;2023-01-08T02:21:02;98248.75;;;5.02;100.00
65756;BME280;52489;47.502;18.940;2023-01-08T02:27:24;98251.59;;;4.96;100.00
65756;BME280;52489;47.502;18.940;2023-01-08T02:28:39;98256.00;;;4.95;100.00
65756;BME280;52489;47.502;18.940;2023-01-08T02:29:43;98254.16;;;4.91;100.00
65756;BME280;52489;47.502;18.940;2023-01-08T02:30:46;98244.56;;;4.91;100.00
65756;BME280;52489;47.502;18.940;2023-01-08T02:31:50;98257.31;;;4.98;100.00
65756;BME280;52489;47.502;18.940;2023-01-08T02:32:53;98252.91;;;4.98;100.00
65756;BME280;52489;47.502;18.940;2023-01-08T02:33:56;98259.69;;;5.05;100.00
65756;BME280;52489;47.502;18.940;2023-01-08T02:35:01;98250.31;;;4.98;100.00
65756;BME280;52489;47.502;18.940;2023-01-08T02:36:20;98249.50;;;4.93;100.00
65756;BME280;52489;47.502;18.940;2023-01-08T02:37:25;98252.06;;;4.88;100.00
65756;BME280;52489;47.502;18.940;2023-01-08T02:38:28;98245.59;;;4.90;100.00
65756;BME280;52489;47.502;18.940;2023-01-08T02:41:03;98238.06;;;4.94;100.00
65756;BME280;52489;47.502;18.940;2023-01-08T02:43:45;98244.81;;;4.90;100.00
65756;BME280;52489;47.502;18.940;2023-01-08T02:45:08;98248.41;;;4.84;100.00
65756;BME280;52489;47.502;18.940;2023-01-08T02:46:21;98245.78;;;4.73;100.00
65756;BME280;52489;47.502;18.940;2023-01-08T02:48:45;98251.50;;;4.81;100.00
65756;BME280;52489;47.502;18.940;2023-01-08T02:49:53;98238.56;;;4.86;100.00
65756;BME280;52489;47.502;18.940;2023-01-08T02:51:13;98244.31;;;4.93;100.00
65756;BME280;52489;47.502;18.940;2023-01-08T02:52:20;98237.31;;;4.98;100.00
65756;BME280;52489;47.502;18.940;2023-01-08T02:53:44;98239.38;;;4.91;100.00
65756;BME280;52489;47.502;18.940;2023-01-08T02:54:49;98238.31;;;4.87;100.00
65756;BME280;52489;47.502;18.940;2023-01-08T02:55:56;98237.25;;;4.83;100.00
65756;BME280;52489;47.502;18.940;2023-01-08T02:57:10;98235.16;;;4.80;100.00
65756;BME280;52489;47.502;18.940;2023-01-08T02:58:15;98244.00;;;4.84;100.00
65756;BME280;52489;47.502;18.940;2023-01-08T02:59:20;98240.59;;;4.73;100.00
65756;BME280;52489;47.502;18.940;2023-01-08T03:00:25;98237.75;;;4.80;100.00
65756;BME280;52489;47.502;18.940;2023-01-08T03:01:29;98231.56;;;4.86;100.00
65756;BME280;52489;47.502;18.940;2023-01-08T03:02:34;98237.50;;;4.76;100.00
65756;BME280;52489;47.502;18.940;2023-01-08T03:03:41;98238.50;;;4.70;100.00
65756;BME280;52489;47.502;18.940;2023-01-08T03:04:55;98233.00;;;4.67;100.00
65756;BME280;52489;47.502;18.940;2023-01-08T03:06:07;98229.47;;;4.83;100.00
65756;BME280;52489;47.502;18.940;2023-01-08T03:07:11;98232.59;;;4.85;100.00
65756;BME280;52489;47.502;18.940;2023-01-08T03:08:15;98229.50;;;4.88;100.00
65756;BME280;52489;47.502;18.940;2023-01-08T03:09:19;98223.28;;;4.89;100.00
65756;BME280;52489;47.502;18.940;2023-01-08T03:10:25;98221.22;;;4.91;100.00
65756;BME280;52489;47.502;18.940;2023-01-08T03:11:35;98217.03;;;4.90;100.00
65756;BME280;52489;47.502;18.940;2023-01-08T03:12:48;98212.56;;;4.75;100.00
65756;BME280;52489;47.502;18.940;2023-01-08T03:14:14;98225.75;;;4.69;100.00
65756;BME280;52489;47.502;18.940;2023-01-08T03:15:27;98217.69;;;4.65;100.00
65756;BME280;52489;47.502;18.940;2023-01-08T03:16:34;98224.47;;;4.71;100.00
65756;BME280;52489;47.502;18.940;2023-01-08T03:17:45;98224.22;;;4.68;100.00
65756;BME280;52489;47.502;18.940;2023-01-08T03:18:53;98224.72;;;4.70;100.00
65756;BME280;52489;47.502;18.940;2023-01-08T03:21:09;98226.03;;;4.72;100.00
65756;BME280;52489;47.502;18.940;2023-01-08T03:22:14;98228.34;;;4.69;100.00
65756;BME280;52489;47.502;18.940;2023-01-08T03:23:20;98222.16;;;4.75;100.00
65756;BME280;52489;47.502;18.940;2023-01-08T03:24:28;98215.69;;;4.77;100.00
65756;BME280;52489;47.502;18.940;2023-01-08T03:25:37;98227.88;;;4.82;100.00
65756;BME280;52489;47.502;18.940;2023-01-08T03:26:43;98221.09;;;4.71;100.00
65756;BME280;52489;47.502;18.940;2023-01-08T03:27:50;98224.50;;;4.76;100.00
65756;BME280;52489;47.502;18.940;2023-01-08T03:28:55;98223.50;;;4.88;100.00
65756;BME280;52489;47.502;18.940;2023-01-08T03:29:59;98221.41;;;4.79;100.00
65756;BME280;52489;47.502;18.940;2023-01-08T03:31:05;98222.69;;;4.77;100.00
65756;BME280;52489;47.502;18.940;2023-01-08T03:32:13;98224.16;;;4.63;100.00
65756;BME280;52489;47.502;18.940;2023-01-08T03:33:18;98219.47;;;4.60;100.00
65756;BME280;52489;47.502;18.940;2023-01-08T03:34:24;98230.09;;;4.58;100.00
65756;BME280;52489;47.502;18.940;2023-01-08T03:35:29;98229.28;;;4.52;100.00
65756;BME280;52489;47.502;18.940;2023-01-08T03:36:35;98226.00;;;4.62;100.00
65756;BME280;52489;47.502;18.940;2023-01-08T03:37:44;98230.44;;;4.72;100.00
65756;BME280;52489;47.502;18.940;2023-01-08T03:39:00;98231.72;;;4.69;100.00
65756;BME280;52489;47.502;18.940;2023-01-08T03:40:22;98235.38;;;4.68;100.00
65756;BME280;52489;47.502;18.940;2023-01-08T03:41:28;98225.72;;;4.64;100.00
65756;BME280;52489;47.502;18.940;2023-01-08T03:42:33;98221.34;;;4.69;100.00
65756;BME280;52489;47.502;18.940;2023-01-08T03:43:36;98216.16;;;4.69;100.00
65756;BME280;52489;47.502;18.940;2023-01-08T03:44:39;98212.78;;;4.69;100.00
65756;BME280;52489;47.502;18.940;2023-01-08T03:45:52;98220.03;;;4.62;100.00
65756;BME280;52489;47.502;18.940;2023-01-08T03:46:58;98210.66;;;4.61;100.00
65756;BME280;52489;47.502;18.940;2023-01-08T03:48:02;98215.34;;;4.64;100.00
65756;BME280;52489;47.502;18.940;2023-01-08T03:49:06;98212.47;;;4.60;100.00
65756;BME280;52489;47.502;18.940;2023-01-08T03:50:22;98214.34;;;4.65;100.00
65756;BME280;52489;47.502;18.940;2023-01-08T03:51:28;98198.75;;;4.70;100.00
65756;BME280;52489;47.502;18.940;2023-01-08T03:52:31;98200.81;;;4.63;100.00
65756;BME280;52489;47.502;18.940;2023-01-08T03:53:37;98200.81;;;4.63;100.00
65756;BME280;52489;47.502;18.940;2023-01-08T03:54:40;98206.81;;;4.68;100.00
65756;BME280;52489;47.502;18.940;2023-01-08T03:55:44;98199.56;;;4.75;100.00
65756;BME280;52489;47.502;18.940;2023-01-08T03:56:47;98206.16;;;4.88;100.00
65756;BME280;52489;47.502;18.940;2023-01-08T03:57:50;98198.34;;;4.93;100.00
65756;BME280;52489;47.502;18.940;2023-01-08T03:58:53;98204.56;;;4.87;100.00
65756;BME280;52489;47.502;18.940;2023-01-08T03:59:56;98202.22;;;4.86;100.00
65756;BME280;52489;47.502;18.940;2023-01-08T04:00:59;98199.69;;;5.01;100.00
65756;BME280;52489;47.502;18.940;2023-01-08T04:02:02;98204.41;;;5.09;100.00
65756;BME280;52489;47.502;18.940;2023-01-08T04:03:06;98213.47;;;5.07;100.00
65756;BME280;52489;47.502;18.940;2023-01-08T04:04:09;98210.59;;;4.98;100.00
65756;BME280;52489;47.502;18.940;2023-01-08T04:05:13;98211.53;;;4.82;100.00
65756;BME280;52489;47.502;18.940;2023-01-08T04:06:17;98213.62;;;4.79;100.00
65756;BME280;52489;47.502;18.940;2023-01-08T04:07:20;98212.09;;;4.94;100.00
65756;BME280;52489;47.502;18.940;2023-01-08T04:08:24;98217.56;;;4.92;100.00
65756;BME280;52489;47.502;18.940;2023-01-08T04:09:27;98220.91;;;4.88;100.00
65756;BME280;52489;47.502;18.940;2023-01-08T04:10:30;98229.00;;;4.91;100.00
65756;BME280;52489;47.502;18.940;2023-01-08T04:11:34;98221.19;;;4.86;100.00
65756;BME280;52489;47.502;18.940;2023-01-08T04:12:37;98214.91;;;4.82;100.00
65756;BME280;52489;47.502;18.940;2023-01-08T04:13:40;98218.00;;;4.74;100.00
65756;BME280;52489;47.502;18.940;2023-01-08T04:14:43;98214.12;;;4.76;100.00
65756;BME280;52489;47.502;18.940;2023-01-08T04:15:47;98212.53;;;4.70;100.00
65756;BME280;52489;47.502;18.940;2023-01-08T04:16:51;98208.41;;;4.74;100.00
65756;BME280;52489;47.502;18.940;2023-01-08T04:17:54;98205.34;;;4.83;100.00
65756;BME280;52489;47.502;18.940;2023-01-08T04:18:57;98202.22;;;4.86;100.00
65756;BME280;52489;47.502;18.940;2023-01-08T04:20:01;98203.75;;;4.82;100.00
65756;BME280;52489;47.502;18.940;2023-01-08T04:21:04;98210.72;;;4.76;100.00
65756;BME280;52489;47.502;18.940;2023-01-08T04:22:11;98202.44;;;4.74;100.00
65756;BME280;52489;47.502;18.940;2023-01-08T04:23:14;98205.28;;;4.72;100.00
65756;BME280;52489;47.502;18.940;2023-01-08T04:24:18;98215.19;;;4.81;100.00
65756;BME280;52489;47.502;18.940;2023-01-08T04:25:21;98205.91;;;4.95;100.00
65756;BME280;52489;47.502;18.940;2023-01-08T04:26:24;98211.56;;;4.87;100.00
65756;BME280;52489;47.502;18.940;2023-01-08T04:27:28;98213.84;;;4.73;100.00
65756;BME280;52489;47.502;18.940;2023-01-08T04:28:31;98206.62;;;4.80;100.00
65756;BME280;52489;47.502;18.940;2023-01-08T04:29:34;98208.75;;;4.93;100.00
65756;BME280;52489;47.502;18.940;2023-01-08T04:30:38;98209.03;;;5.02;100.00
65756;BME280;52489;47.502;18.940;2023-01-08T04:31:41;98202.78;;;4.93;100.00
65756;BME280;52489;47.502;18.940;2023-01-08T04:32:44;98203.59;;;5.04;100.00
65756;BME280;52489;47.502;18.940;2023-01-08T04:33:47;98205.13;;;4.99;100.00
65756;BME280;52489;47.502;18.940;2023-01-08T04:34:50;98198.62;;;4.92;100.00
65756;BME280;52489;47.502;18.940;2023-01-08T04:35:53;98203.50;;;4.83;100.00
65756;BME280;52489;47.502;18.940;2023-01-08T04:36:56;98206.09;;;4.83;100.00
65756;BME280;52489;47.502;18.940;2023-01-08T04:38:00;98204.56;;;4.87;100.00
65756;BME280;52489;47.502;18.940;2023-01-08T04:39:04;98208.97;;;4.87;100.00
65756;BME280;52489;47.502;18.940;2023-01-08T04:40:07;98210.06;;;4.96;100.00
65756;BME280;52489;47.502;18.940;2023-01-08T04:41:11;98211.59;;;4.92;100.00
65756;BME280;52489;47.502;18.940;2023-01-08T04:42:14;98208.72;;;4.83;100.00
65756;BME280;52489;47.502;18.940;2023-01-08T04:43:17;98212.91;;;4.94;100.00
65756;BME280;52489;47.502;18.940;2023-01-08T04:44:20;98212.31;;;4.82;100.00
65756;BME280;52489;47.502;18.940;2023-01-08T04:45:23;98210.00;;;4.81;100.00
65756;BME280;52489;47.502;18.940;2023-01-08T04:46:27;98212.56;;;4.75;100.00
65756;BME280;52489;47.502;18.940;2023-01-08T04:47:30;98218.00;;;4.74;100.00
65756;BME280;52489;47.502;18.940;2023-01-08T04:48:34;98206.66;;;4.85;100.00
65756;BME280;52489;47.502;18.940;2023-01-08T04:49:37;98213.91;;;4.83;100.00
65756;BME280;52489;47.502;18.940;2023-01-08T04:50:40;98210.25;;;4.84;100.00
65756;BME280;52489;47.502;18.940;2023-01-08T04:51:43;98218.31;;;4.88;100.00
65756;BME280;52489;47.502;18.940;2023-01-08T04:52:46;98205.31;;;4.77;100.00
65756;BME280;52489;47.502;18.940;2023-01-08T04:53:49;98211.84;;;4.85;100.00
65756;BME280;52489;47.502;18.940;2023-01-08T04:54:52;98214.72;;;4.89;100.00
65756;BME280;52489;47.502;18.940;2023-01-08T04:55:55;98211.63;;;4.97;100.00
65756;BME280;52489;47.502;18.940;2023-01-08T04:57:04;98211.84;;;4.90;100.00
65756;BME280;52489;47.502;18.940;2023-01-08T04:58:07;98214.72;;;4.89;100.00
65756;BME280;52489;47.502;18.940;2023-01-08T04:59:11;98211.56;;;4.87;100.00
65756;BME280;52489;47.502;18.940;2023-01-08T05:00:14;98205.84;;;4.79;100.00
65756;BME280;52489;47.502;18.940;2023-01-08T05:01:22;98196.28;;;4.95;100.00
65756;BME280;52489;47.502;18.940;2023-01-08T05:02:25;98206.66;;;4.90;100.00
65756;BME280;52489;47.502;18.940;2023-01-08T05:03:30;98199.16;;;4.99;100.00
65756;BME280;52489;47.502;18.940;2023-01-08T05:04:33;98205.62;;;4.96;100.00
65756;BME280;52489;47.502;18.940;2023-01-08T05:05:36;98209.75;;;4.87;100.00
65756;BME280;52489;47.502;18.940;2023-01-08T05:06:39;98200.94;;;4.93;100.00
65756;BME280;52489;47.502;18.940;2023-01-08T05:07:42;98204.34;;;4.99;100.00
65756;BME280;52489;47.502;18.940;2023-01-08T05:08:46;98198.12;;;5.00;100.00
65756;BME280;52489;47.502;18.940;2023-01-08T05:09:49;98208.25;;;5.01;100.00
65756;BME280;52489;47.502;18.940;2023-01-08T05:10:52;98204.31;;;4.94;100.00
65756;BME280;52489;47.502;18.940;2023-01-08T05:11:55;98200.16;;;4.93;100.00
65756;BME280;52489;47.502;18.940;2023-01-08T05:12:58;98198.88;;;4.85;100.00
65756;BME280;52489;47.502;18.940;2023-01-08T05:14:02;98198.81;;;4.75;100.00
65756;BME280;52489;47.502;18.940;2023-01-08T05:15:06;98201.91;;;4.72;100.00
65756;BME280;52489;47.502;18.940;2023-01-08T05:16:09;98197.75;;;4.71;100.00
65756;BME280;52489;47.502;18.940;2023-01-08T05:17:12;98202.75;;;4.88;100.00
65756;BME280;52489;47.502;18.940;2023-01-08T05:18:16;98198.34;;;4.93;100.00
65756;BME280;52489;47.502;18.940;2023-01-08T05:19:19;98190.06;;;4.91;100.00
65756;BME280;52489;47.502;18.940;2023-01-08T05:20:22;98199.44;;;4.97;100.00
65756;BME280;52489;47.502;18.940;2023-01-08T05:21:25;98196.81;;;4.92;100.00
65756;BME280;52489;47.502;18.940;2023-01-08T05:22:28;98193.94;;;4.89;100.00
65756;BME280;52489;47.502;18.940;2023-01-08T05:23:32;98197.84;;;4.91;100.00
65756;BME280;52489;47.502;18.940;2023-01-08T05:24:35;98198.66;;;4.97;100.00
65756;BME280;52489;47.502;18.940;2023-01-08T05:25:38;98195.25;;;4.91;100.00
65756;BME280;52489;47.502;18.940;2023-01-08T05:26:41;98184.81;;;4.81;100.00
65756;BME280;52489;47.502;18.940;2023-01-08T05:27:44;98185.09;;;4.90;100.00
65756;BME280;52489;47.502;18.940;2023-01-08T05:28:47;98178.34;;;4.84;100.00
65756;BME280;52489;47.502;18.940;2023-01-08T05:29:50;98180.97;;;4.89;100.00
65756;BME280;52489;47.502;18.940;2023-01-08T05:30:57;98176.84;;;4.98;100.00
65756;BME280;52489;47.502;18.940;2023-01-08T05:32:00;98179.94;;;4.95;100.00
65756;BME280;52489;47.502;18.940;2023-01-08T05:33:04;98180.19;;;4.88;100.00
65756;BME280;52489;47.502;18.940;2023-01-08T05:34:07;98178.84;;;4.81;100.00
65756;BME280;52489;47.502;18.940;2023-01-08T05:35:10;98178.28;;;4.68;100.00
65756;BME280;52489;47.502;18.940;2023-01-08T05:36:13;98172.59;;;4.76;100.00
65756;BME280;52489;47.502;18.940;2023-01-08T05:37:16;98184.00;;;4.70;100.00
65756;BME280;52489;47.502;18.940;2023-01-08T05:38:19;98184.78;;;4.76;100.00
65756;BME280;52489;47.502;18.940;2023-01-08T05:39:23;98191.00;;;4.75;100.00
65756;BME280;52489;47.502;18.940;2023-01-08T05:40:26;98182.25;;;4.86;100.00
65756;BME280;52489;47.502;18.940;2023-01-08T05:41:29;98181.16;;;4.77;100.00
65756;BME280;52489;47.502;18.940;2023-01-08T05:42:33;98185.78;;;4.70;100.00
65756;BME280;52489;47.502;18.940;2023-01-08T05:43:37;98179.09;;;4.74;100.00
65756;BME280;52489;47.502;18.940;2023-01-08T05:44:40;98191.53;;;4.72;100.00
65756;BME280;52489;47.502;18.940;2023-01-08T05:45:43;98188.97;;;4.77;100.00
65756;BME280;52489;47.502;18.940;2023-01-08T05:46:46;98184.88;;;4.91;100.00
65756;BME280;52489;47.502;18.940;2023-01-08T05:47:50;98187.41;;;4.81;100.00
65756;BME280;52489;47.502;18.940;2023-01-08T05:48:53;98185.59;;;4.76;100.00
65756;BME280;52489;47.502;18.940;2023-01-08T05:49:56;98174.59;;;4.64;100.00
65756;BME280;52489;47.502;18.940;2023-01-08T05:51:00;98174.59;;;4.64;100.00
65756;BME280;52489;47.502;18.940;2023-01-08T05:52:03;98172.81;;;4.70;100.00
65756;BME280;52489;47.502;18.940;2023-01-08T05:53:07;98173.59;;;4.65;100.00
65756;BME280;52489;47.502;18.940;2023-01-08T05:54:10;98173.63;;;4.75;100.00